Terminal Aerodrome Forecast
Issued by NWS

Home | Current Version | Previous Version | Text Only | Print | Product List | Glossary On
Versions: 1 2 3 4 5 6 7 8 9 10 11 12 13 14 15 16 17 18 19 20 21 22 23 24 25
000
FTUS45 KGGW 231720
TAFOLF
TAF
KOLF 231720Z 2318/2418 00000KT P6SM BKN120
     FM240600 04008KT 6SM -RA OVC015
     FM240900 06016KT 5SM -RA OVC008
     FM241200 06016KT 4SM -RA OVC007 PROB30 2412/2415 4SM -SNPL
      OVC001
     FM241500 07017G25KT 2SM -SNRA OVC008 PROB30 2415/2418 2SM -SN
      OVC005=

USA.gov is the U.S. government's official web portal to all federal, state and local government web resources and services.